createdAt,value
2019-06-10T00:00:16.269Z,17.50
2019-06-10T00:02:44.170Z,17.40
2019-06-10T00:05:14.466Z,17.40
2019-06-10T00:07:44.099Z,17.40
2019-06-10T00:10:15.579Z,17.40
2019-06-10T00:12:45.151Z,17.40
2019-06-10T00:15:14.946Z,17.50
2019-06-10T00:17:54.806Z,17.40
2019-06-10T00:20:16.059Z,17.50
2019-06-10T00:22:45.626Z,17.40
2019-06-10T00:25:15.476Z,17.30
2019-06-10T00:27:44.968Z,17.30
2019-06-10T00:30:15.042Z,17.20
2019-06-10T00:32:44.530Z,17.10
2019-06-10T00:35:14.090Z,16.90
2019-06-10T00:37:43.641Z,17.00
2019-06-10T00:40:14.215Z,17.10
2019-06-10T00:42:44.029Z,17.10
2019-06-10T00:45:18.020Z,17.10
2019-06-10T00:47:47.198Z,17.00
2019-06-10T00:50:16.899Z,16.90
2019-06-10T00:52:46.450Z,16.80
2019-06-10T00:55:16.015Z,16.90
2019-06-10T00:57:45.498Z,16.70
2019-06-10T01:00:25.177Z,16.80
2019-06-10T01:02:46.423Z,16.90
2019-06-10T01:05:15.974Z,17.00
2019-06-10T01:07:45.467Z,16.80
2019-06-10T01:10:15.731Z,16.80
2019-06-10T01:12:45.292Z,16.70
2019-06-10T01:15:15.333Z,16.70
2019-06-10T01:17:45.183Z,16.80
2019-06-10T01:20:15.958Z,16.70
2019-06-10T01:22:45.903Z,16.70
2019-06-10T01:25:15.402Z,16.60
2019-06-10T01:27:44.945Z,16.70
2019-06-10T01:30:21.630Z,16.60
2019-06-10T01:32:45.824Z,16.60
2019-06-10T01:35:15.877Z,16.50
2019-06-10T01:37:46.742Z,16.50
2019-06-10T01:40:17.864Z,16.60
2019-06-10T01:42:47.570Z,16.60
2019-06-10T01:45:18.337Z,16.50
2019-06-10T01:47:47.845Z,16.40
2019-06-10T01:50:18.902Z,16.40
2019-06-10T01:52:48.667Z,16.40
2019-06-10T01:55:18.297Z,16.30
2019-06-10T01:57:48.021Z,16.30
2019-06-10T02:00:25.660Z,16.10
2019-06-10T02:02:52.353Z,16.00
2019-06-10T02:05:23.417Z,16.10
2019-06-10T02:07:52.983Z,15.90
2019-06-10T02:10:23.151Z,16.00
2019-06-10T02:12:52.977Z,16.10
2019-06-10T02:15:23.555Z,16.10
2019-06-10T02:17:53.079Z,16.10
2019-06-10T02:20:23.810Z,16.00
2019-06-10T02:23:06.063Z,16.20
2019-06-10T02:25:35.554Z,16.10
2019-06-10T02:28:05.127Z,16.10
2019-06-10T02:30:41.567Z,16.00
2019-06-10T02:33:06.019Z,15.80
2019-06-10T02:35:43.965Z,15.90
2019-06-10T02:38:06.751Z,15.80
2019-06-10T02:40:36.521Z,15.80
2019-06-10T02:43:07.052Z,15.90
2019-06-10T02:45:37.613Z,15.70
2019-06-10T02:48:07.481Z,15.60
2019-06-10T02:50:54.016Z,15.50
2019-06-10T02:53:30.274Z,15.50
2019-06-10T02:55:54.783Z,15.40
2019-06-10T02:58:33.253Z,15.50
2019-06-10T03:00:55.663Z,15.50
2019-06-10T03:03:35.839Z,15.30
2019-06-10T03:05:56.494Z,15.30
2019-06-10T03:08:30.939Z,15.30
2019-06-10T03:10:57.319Z,15.30
2019-06-10T03:13:28.154Z,15.20
2019-06-10T03:16:15.797Z,15.30
2019-06-10T03:18:45.452Z,15.30
2019-06-10T03:21:15.931Z,15.40
2019-06-10T03:23:45.619Z,15.30
2019-06-10T03:26:15.264Z,15.30
2019-06-10T03:28:44.825Z,15.20
2019-06-10T03:31:15.543Z,15.20
2019-06-10T03:33:47.544Z,15.20
2019-06-10T03:36:17.902Z,15.20
2019-06-10T03:38:47.745Z,15.40
2019-06-10T03:41:18.359Z,15.30
2019-06-10T03:43:48.072Z,15.30
2019-06-10T03:46:17.625Z,15.30
2019-06-10T03:48:47.179Z,15.20
2019-06-10T03:51:17.200Z,15.10
2019-06-10T03:53:46.983Z,15.10
2019-06-10T03:56:17.147Z,15.00
2019-06-10T03:58:46.875Z,15.00
2019-06-10T04:01:17.413Z,14.90
2019-06-10T04:03:47.130Z,14.90
2019-06-10T04:06:17.452Z,14.80
2019-06-10T04:08:48.182Z,14.90
2019-06-10T04:11:17.677Z,14.80
2019-06-10T04:13:47.162Z,14.80
2019-06-10T04:16:17.602Z,14.90
2019-06-10T04:18:47.232Z,14.80
2019-06-10T04:21:17.640Z,14.70
2019-06-10T04:23:48.368Z,14.80
2019-06-10T04:26:17.880Z,14.80
2019-06-10T04:28:47.486Z,14.80
2019-06-10T04:31:18.166Z,14.80
2019-06-10T04:33:47.833Z,14.80
2019-06-10T04:36:18.336Z,14.80
2019-06-10T04:38:48.014Z,14.80
2019-06-10T04:41:18.346Z,14.80
2019-06-10T04:43:48.110Z,14.80
2019-06-10T04:46:18.584Z,14.70
2019-06-10T04:48:48.327Z,14.50
2019-06-10T04:51:18.704Z,14.50
2019-06-10T04:53:48.626Z,14.80
2019-06-10T04:56:18.107Z,14.60
2019-06-10T04:58:47.664Z,14.40
2019-06-10T05:01:17.151Z,14.40
2019-06-10T05:03:46.638Z,14.20
2019-06-10T05:06:16.189Z,14.40
2019-06-10T05:08:45.684Z,14.30
2019-06-10T05:11:15.324Z,14.20
2019-06-10T05:13:44.968Z,14.50
2019-06-10T05:16:14.523Z,14.30
2019-06-10T05:18:44.095Z,14.40
2019-06-10T05:21:13.583Z,14.30
2019-06-10T05:23:43.257Z,14.30
2019-06-10T05:26:13.328Z,14.30
2019-06-10T05:28:43.469Z,14.20
2019-06-10T05:31:13.246Z,14.30
2019-06-10T05:33:42.886Z,14.00
2019-06-10T05:36:13.131Z,14.10
2019-06-10T05:38:43.713Z,14.10
2019-06-10T05:41:13.637Z,14.20
2019-06-10T05:43:43.249Z,14.00
2019-06-10T05:46:13.351Z,14.00
2019-06-10T05:48:43.840Z,13.90
2019-06-10T05:51:13.622Z,13.90
2019-06-10T05:53:45.755Z,14.00
2019-06-10T05:56:14.440Z,13.90
2019-06-10T05:58:44.964Z,13.80
2019-06-10T06:01:14.495Z,13.90
2019-06-10T06:03:44.151Z,13.90
2019-06-10T06:06:14.718Z,14.00
2019-06-10T06:08:44.210Z,14.00
2019-06-10T06:11:13.698Z,13.80
2019-06-10T06:13:43.418Z,13.90
2019-06-10T06:16:12.959Z,14.10
2019-06-10T06:18:42.942Z,14.10
2019-06-10T06:21:25.202Z,13.90
2019-06-10T06:23:43.907Z,14.00
2019-06-10T06:26:16.428Z,13.90
2019-06-10T06:28:45.188Z,14.00
2019-06-10T06:31:14.775Z,14.30
2019-06-10T06:33:44.269Z,14.30
2019-06-10T06:36:13.778Z,14.20
2019-06-10T06:38:43.965Z,14.10
2019-06-10T06:41:13.810Z,14.00
2019-06-10T06:43:45.417Z,14.10
2019-06-10T06:46:16.270Z,14.20
2019-06-10T06:48:45.835Z,14.00
2019-06-10T06:51:15.327Z,14.20
2019-06-10T06:53:51.734Z,14.20
2019-06-10T06:56:16.079Z,14.20
2019-06-10T06:58:45.780Z,14.10
2019-06-10T07:01:15.362Z,14.10
2019-06-10T07:03:45.435Z,14.10
2019-06-10T07:06:16.582Z,14.20
2019-06-10T07:09:00.611Z,14.20
2019-06-10T07:11:18.911Z,14.20
2019-06-10T07:13:48.421Z,14.20
2019-06-10T07:16:18.000Z,14.20
2019-06-10T07:18:50.346Z,14.20
2019-06-10T07:21:18.742Z,14.20
2019-06-10T07:23:48.321Z,14.20
2019-06-10T07:26:17.878Z,14.40
2019-06-10T07:28:47.671Z,14.50
2019-06-10T07:31:23.800Z,14.40
2019-06-10T07:33:48.726Z,14.40
2019-06-10T07:36:18.503Z,14.50
2019-06-10T07:38:49.209Z,14.50
2019-06-10T07:41:18.940Z,14.50
2019-06-10T07:43:49.766Z,14.50
2019-06-10T07:46:19.526Z,14.40
2019-06-10T07:48:52.705Z,14.30
2019-06-10T07:51:22.569Z,14.40
2019-06-10T07:53:53.361Z,14.60
2019-06-10T07:56:23.486Z,14.50
2019-06-10T07:58:53.254Z,14.60
2019-06-10T08:01:24.066Z,14.80
2019-06-10T08:03:53.628Z,14.50
2019-06-10T08:06:23.260Z,14.50
2019-06-10T08:08:53.407Z,14.80
2019-06-10T08:11:23.148Z,14.90
2019-06-10T08:13:54.224Z,14.70
2019-06-10T08:16:24.086Z,14.90
2019-06-10T08:19:20.110Z,15.10
2019-06-10T08:21:25.918Z,15.20
2019-06-10T08:23:55.560Z,15.30
2019-06-10T08:26:25.127Z,15.50
2019-06-10T08:28:54.755Z,15.70
2019-06-10T08:31:24.247Z,15.60
2019-06-10T08:33:53.878Z,15.50
2019-06-10T08:36:23.959Z,15.40
2019-06-10T08:38:53.461Z,15.30
2019-06-10T08:41:23.368Z,15.40
2019-06-10T08:43:53.151Z,15.40
2019-06-10T08:46:22.856Z,15.50
2019-06-10T08:48:52.731Z,15.70
2019-06-10T08:51:23.580Z,15.60
2019-06-10T08:53:53.614Z,15.90
2019-06-10T08:56:25.528Z,15.90
2019-06-10T08:58:55.110Z,15.90
2019-06-10T09:01:24.823Z,15.90
2019-06-10T09:03:54.415Z,16.00
2019-06-10T09:06:23.998Z,15.90
2019-06-10T09:08:54.610Z,15.90
2019-06-10T09:11:24.232Z,16.00
2019-06-10T09:13:53.726Z,16.00
2019-06-10T09:16:23.292Z,16.00
2019-06-10T09:18:55.325Z,15.90
2019-06-10T09:21:24.203Z,16.10
2019-06-10T09:23:59.607Z,15.90
2019-06-10T09:26:24.989Z,16.10
2019-06-10T09:28:56.623Z,16.40
2019-06-10T09:31:27.180Z,16.20
2019-06-10T09:33:57.203Z,16.40
2019-06-10T09:36:27.626Z,16.30
2019-06-10T09:38:58.595Z,16.40
2019-06-10T09:41:39.372Z,16.60
2019-06-10T09:43:59.953Z,16.60
2019-06-10T09:46:33.076Z,16.50
2019-06-10T09:49:03.936Z,16.40
2019-06-10T09:51:33.796Z,16.50
2019-06-10T09:54:06.595Z,16.90
2019-06-10T09:56:34.696Z,16.90
2019-06-10T09:59:04.680Z,16.90
2019-06-10T10:01:34.243Z,16.80
2019-06-10T10:04:04.769Z,17.00
2019-06-10T10:06:34.620Z,17.40
2019-06-10T10:09:05.619Z,17.20
2019-06-10T10:11:35.249Z,17.30
2019-06-10T10:14:08.735Z,17.30
2019-06-10T10:16:36.396Z,17.20
2019-06-10T10:19:06.098Z,17.10
2019-06-10T10:21:35.655Z,17.30
2019-06-10T10:24:10.470Z,17.20
2019-06-10T10:26:36.571Z,17.10
2019-06-10T10:29:06.141Z,17.20
2019-06-10T10:31:35.700Z,17.50
2019-06-10T10:34:05.259Z,17.80
2019-06-10T10:36:34.810Z,17.80
2019-06-10T10:39:09.616Z,17.70
2019-06-10T10:41:43.190Z,17.30
2019-06-10T10:44:13.845Z,17.10
2019-06-10T10:46:42.889Z,16.90
2019-06-10T10:49:13.205Z,16.80
2019-06-10T10:51:44.824Z,16.90
2019-06-10T10:54:28.678Z,17.00
2019-06-10T10:56:47.766Z,17.10
2019-06-10T10:59:17.083Z,17.20
2019-06-10T11:01:47.538Z,17.20
2019-06-10T11:04:17.167Z,17.30
2019-06-10T11:06:47.808Z,17.30
2019-06-10T11:09:19.406Z,17.30
2019-06-10T11:11:52.220Z,17.50
2019-06-10T11:14:23.035Z,17.50
2019-06-10T11:16:55.141Z,17.70
2019-06-10T11:19:24.020Z,17.70
2019-06-10T11:21:53.744Z,17.60
2019-06-10T11:24:35.529Z,17.60
2019-06-10T11:26:56.473Z,17.70
2019-06-10T11:29:27.344Z,18.10
2019-06-10T11:31:58.689Z,18.00
2019-06-10T11:34:28.961Z,18.10
2019-06-10T11:37:02.150Z,18.10
2019-06-10T11:39:33.052Z,18.10
2019-06-10T11:42:03.669Z,18.20
2019-06-10T11:44:34.059Z,18.10
2019-06-10T11:47:03.771Z,18.20
2019-06-10T11:49:33.321Z,18.20
2019-06-10T11:52:03.351Z,18.40
2019-06-10T11:54:47.845Z,18.20
2019-06-10T11:57:04.457Z,18.20
2019-06-10T11:59:33.953Z,18.30
2019-06-10T12:02:06.039Z,18.10
2019-06-10T12:04:34.698Z,18.20
2019-06-10T12:07:04.355Z,18.40
2019-06-10T12:09:33.909Z,18.30
2019-06-10T12:12:03.742Z,18.20
2019-06-10T12:14:34.474Z,18.30
2019-06-10T12:17:35.069Z,18.60
2019-06-10T12:19:35.215Z,18.70
2019-06-10T12:22:07.653Z,18.90
2019-06-10T12:24:36.484Z,18.80
2019-06-10T12:27:07.661Z,18.60
2019-06-10T12:29:37.319Z,18.60
2019-06-10T12:32:07.657Z,18.90
2019-06-10T12:34:37.464Z,19.20
2019-06-10T12:37:11.956Z,19.20
2019-06-10T12:39:38.363Z,19.00
2019-06-10T12:42:10.950Z,18.60
2019-06-10T12:44:39.123Z,18.50
2019-06-10T12:47:08.768Z,18.60
2019-06-10T12:49:38.489Z,18.80
2019-06-10T12:52:08.063Z,18.50
2019-06-10T12:54:37.695Z,18.40
2019-06-10T12:57:07.336Z,18.20
2019-06-10T12:59:37.002Z,17.90
2019-06-10T13:02:19.128Z,17.90
2019-06-10T13:04:39.345Z,18.50
2019-06-10T13:07:12.594Z,18.50
2019-06-10T13:09:43.862Z,18.50
2019-06-10T13:12:13.557Z,18.20
2019-06-10T13:14:43.689Z,18.40
2019-06-10T13:17:13.483Z,18.40
2019-06-10T13:19:43.363Z,18.50
2019-06-10T13:22:14.114Z,18.30
2019-06-10T13:24:43.750Z,18.30
2019-06-10T13:27:13.322Z,18.40
2019-06-10T13:29:44.088Z,18.30
2019-06-10T13:32:15.216Z,18.10
2019-06-10T13:34:45.846Z,18.20
2019-06-10T13:37:16.228Z,18.10
2019-06-10T13:39:46.046Z,18.10
2019-06-10T13:42:15.674Z,18.00
2019-06-10T13:44:46.251Z,18.00
2019-06-10T13:47:17.354Z,17.90
2019-06-10T13:49:46.918Z,17.80
2019-06-10T13:52:17.068Z,17.70
2019-06-10T13:54:46.938Z,17.70
2019-06-10T13:57:16.505Z,17.80
2019-06-10T13:59:46.562Z,18.00
2019-06-10T14:02:16.357Z,17.90
2019-06-10T14:04:46.010Z,17.80
2019-06-10T14:07:17.287Z,17.70
2019-06-10T14:09:46.825Z,17.60
2019-06-10T14:12:17.363Z,17.70
2019-06-10T14:14:47.405Z,17.70
2019-06-10T14:17:19.415Z,17.80
2019-06-10T14:19:48.291Z,17.80
2019-06-10T14:22:17.783Z,17.70
2019-06-10T14:24:47.267Z,17.50
2019-06-10T14:27:20.474Z,17.60
2019-06-10T14:29:48.073Z,17.50
2019-06-10T14:32:17.562Z,17.50
2019-06-10T14:34:47.066Z,17.40
2019-06-10T14:37:29.675Z,17.50
2019-06-10T14:39:47.910Z,17.70
2019-06-10T14:42:17.404Z,17.90
2019-06-10T14:44:46.993Z,18.10
2019-06-10T14:47:16.864Z,18.10
2019-06-10T14:49:46.679Z,18.00
2019-06-10T14:52:16.918Z,18.00
2019-06-10T14:54:46.813Z,17.90
2019-06-10T14:57:16.807Z,17.90
2019-06-10T14:59:46.653Z,17.80
2019-06-10T15:02:17.482Z,17.90
2019-06-10T15:04:47.150Z,17.80
2019-06-10T15:07:16.715Z,17.90
2019-06-10T15:09:46.271Z,17.80
2019-06-10T15:12:17.396Z,17.80
2019-06-10T15:14:47.019Z,17.80
2019-06-10T15:17:18.800Z,17.90
2019-06-10T15:19:48.541Z,18.00
2019-06-10T15:22:20.028Z,18.10
2019-06-10T15:24:49.658Z,18.10
2019-06-10T15:27:24.661Z,18.20
2019-06-10T15:29:52.586Z,18.20
2019-06-10T15:32:33.915Z,18.20
2019-06-10T15:34:52.980Z,18.20
2019-06-10T15:37:24.577Z,18.10
2019-06-10T15:39:54.946Z,18.10
2019-06-10T15:42:24.604Z,18.10
2019-06-10T15:44:56.006Z,18.10
2019-06-10T15:47:26.575Z,18.20
2019-06-10T15:49:56.340Z,18.30
2019-06-10T15:52:25.980Z,18.20
2019-06-10T15:54:55.643Z,18.30
2019-06-10T15:57:38.587Z,18.10
2019-06-10T15:59:56.830Z,18.10
2019-06-10T16:02:27.502Z,18.00
2019-06-10T16:04:57.079Z,18.00
2019-06-10T16:07:27.656Z,18.10
2019-06-10T16:09:57.360Z,18.00
2019-06-10T16:12:28.100Z,17.80
2019-06-10T16:14:57.747Z,17.60
2019-06-10T16:17:30.139Z,17.60
2019-06-10T16:20:03.661Z,17.40
2019-06-10T16:22:32.492Z,17.30
2019-06-10T16:25:03.449Z,17.20
2019-06-10T16:27:44.488Z,17.30
2019-06-10T16:30:07.251Z,17.30
2019-06-10T16:32:36.955Z,17.30
2019-06-10T16:35:07.996Z,17.10
2019-06-10T16:37:37.587Z,17.20
2019-06-10T16:40:09.354Z,17.20
2019-06-10T16:42:39.019Z,17.30
2019-06-10T16:45:12.810Z,17.30
2019-06-10T16:47:39.915Z,17.30
2019-06-10T16:50:12.043Z,17.30
2019-06-10T16:52:43.113Z,17.40
2019-06-10T16:55:12.780Z,17.30
2019-06-10T16:57:42.471Z,17.20
2019-06-10T17:00:14.564Z,17.00
2019-06-10T17:02:43.706Z,17.00
2019-06-10T17:05:13.603Z,17.00
2019-06-10T17:07:44.215Z,16.90
2019-06-10T17:10:15.064Z,16.80
2019-06-10T17:12:46.267Z,16.80
2019-06-10T17:15:15.955Z,16.80
2019-06-10T17:17:45.568Z,16.70
2019-06-10T17:20:15.167Z,16.60
2019-06-10T17:22:44.740Z,16.70
2019-06-10T17:25:15.411Z,16.60
2019-06-10T17:27:44.972Z,16.50
2019-06-10T17:30:15.155Z,16.50
2019-06-10T17:32:44.818Z,16.50
2019-06-10T17:35:14.463Z,16.30
2019-06-10T17:37:47.095Z,16.40
2019-06-10T17:40:18.599Z,16.50
2019-06-10T17:42:48.232Z,16.50
2019-06-10T17:45:17.896Z,16.40
2019-06-10T17:47:49.072Z,16.40
2019-06-10T17:50:18.778Z,16.40
2019-06-10T17:52:48.491Z,16.30
2019-06-10T17:55:18.203Z,16.30
2019-06-10T17:57:48.481Z,16.30
2019-06-10T18:00:18.124Z,16.20
2019-06-10T18:02:49.373Z,16.20
2019-06-10T18:05:19.136Z,16.20
2019-06-10T18:07:48.954Z,16.20
2019-06-10T18:10:18.660Z,16.20
2019-06-10T18:12:48.404Z,16.10
2019-06-10T18:15:18.229Z,16.10
2019-06-10T18:17:47.955Z,16.10
2019-06-10T18:20:18.613Z,16.10
2019-06-10T18:22:48.330Z,16.00
2019-06-10T18:25:18.176Z,15.90
2019-06-10T18:27:47.756Z,15.90
2019-06-10T18:30:22.090Z,16.00
2019-06-10T18:32:52.532Z,15.80
2019-06-10T18:35:22.736Z,15.80
2019-06-10T18:37:53.157Z,15.80
2019-06-10T18:40:23.071Z,15.80
2019-06-10T18:42:52.901Z,15.80
2019-06-10T18:45:22.953Z,15.80
2019-06-10T18:47:53.590Z,15.70
2019-06-10T18:50:25.988Z,15.50
2019-06-10T18:52:57.404Z,15.60
2019-06-10T18:55:26.859Z,15.60
2019-06-10T18:57:57.060Z,15.60
2019-06-10T19:00:44.943Z,15.50
2019-06-10T19:03:10.340Z,15.60
2019-06-10T19:05:33.099Z,15.50
2019-06-10T19:08:02.517Z,15.50
2019-06-10T19:10:34.297Z,15.50
2019-06-10T19:13:04.497Z,15.50
2019-06-10T19:15:35.756Z,15.40
2019-06-10T19:18:06.531Z,15.40
2019-06-10T19:20:39.184Z,15.40
2019-06-10T19:23:12.918Z,15.40
2019-06-10T19:25:45.537Z,15.20
2019-06-10T19:28:15.691Z,15.20
2019-06-10T19:30:45.485Z,15.20
2019-06-10T19:33:15.441Z,15.10
2019-06-10T19:35:45.501Z,15.10
2019-06-10T19:38:15.531Z,15.20
2019-06-10T19:40:45.884Z,15.10
2019-06-10T19:43:16.413Z,15.20
2019-06-10T19:45:48.873Z,15.20
2019-06-10T19:48:18.843Z,15.00
2019-06-10T19:50:51.317Z,15.10
2019-06-10T19:53:22.169Z,15.00
2019-06-10T19:55:53.350Z,15.00
2019-06-10T19:58:24.159Z,15.00
2019-06-10T20:00:54.833Z,14.90
2019-06-10T20:03:26.445Z,14.90
2019-06-10T20:05:57.037Z,14.90
2019-06-10T20:08:28.694Z,14.90
2019-06-10T20:10:59.032Z,14.90
2019-06-10T20:13:32.301Z,14.80
2019-06-10T20:16:02.924Z,14.80
2019-06-10T20:18:33.964Z,14.90
2019-06-10T20:21:04.259Z,14.90
2019-06-10T20:23:35.410Z,14.80
2019-06-10T20:26:07.295Z,14.70
2019-06-10T20:28:38.612Z,14.80
2019-06-10T20:31:09.873Z,15.00
2019-06-10T20:33:43.104Z,14.80
2019-06-10T20:36:21.234Z,14.70
2019-06-10T20:38:47.258Z,14.80
2019-06-10T20:41:16.794Z,14.80
2019-06-10T20:43:47.399Z,14.80
2019-06-10T20:46:17.981Z,14.80
2019-06-10T20:48:51.091Z,14.90
2019-06-10T20:51:22.596Z,14.60
2019-06-10T20:53:53.329Z,14.70
2019-06-10T20:56:24.046Z,14.70
2019-06-10T20:58:55.896Z,14.70
2019-06-10T21:01:26.492Z,14.70
2019-06-10T21:03:56.798Z,14.60
2019-06-10T21:06:28.258Z,14.70
2019-06-10T21:09:02.759Z,14.70
2019-06-10T21:11:33.350Z,14.80
2019-06-10T21:14:03.354Z,14.80
2019-06-10T21:16:33.308Z,14.80
2019-06-10T21:19:03.158Z,14.60
2019-06-10T21:21:32.929Z,14.60
2019-06-10T21:24:02.787Z,14.50
2019-06-10T21:26:34.075Z,14.50
2019-06-10T21:29:04.179Z,14.60
2019-06-10T21:31:33.750Z,14.60
2019-06-10T21:34:03.389Z,14.50
2019-06-10T21:36:33.092Z,14.50
2019-06-10T21:39:03.250Z,14.60
2019-06-10T21:41:33.830Z,14.50
2019-06-10T21:44:03.459Z,14.50
2019-06-10T21:46:33.055Z,14.50
2019-06-10T21:49:02.621Z,14.40
2019-06-10T21:51:34.572Z,14.40
2019-06-10T21:54:03.335Z,14.50
2019-06-10T21:56:33.027Z,14.40
2019-06-10T21:59:02.641Z,14.30
2019-06-10T22:01:32.712Z,14.30
2019-06-10T22:04:04.565Z,14.30
2019-06-10T22:06:33.596Z,14.20
2019-06-10T22:09:04.519Z,14.20
2019-06-10T22:11:35.071Z,14.20
2019-06-10T22:14:04.626Z,14.20
2019-06-10T22:16:34.177Z,14.30
2019-06-10T22:19:04.014Z,14.30
2019-06-10T22:21:33.970Z,14.30
2019-06-10T22:24:03.606Z,14.10
2019-06-10T22:26:33.153Z,14.20
2019-06-10T22:29:02.710Z,14.10
2019-06-10T22:31:32.640Z,14.00
2019-06-10T22:34:03.361Z,14.10
2019-06-10T22:36:32.967Z,14.00
2019-06-10T22:39:03.190Z,14.00
2019-06-10T22:41:34.614Z,13.90
2019-06-10T22:44:04.258Z,14.10
2019-06-10T22:46:33.742Z,14.20
2019-06-10T22:49:03.367Z,13.90
2019-06-10T22:51:33.552Z,13.80
2019-06-10T22:54:03.714Z,13.70
2019-06-10T22:56:34.515Z,13.50
2019-06-10T22:59:04.176Z,13.60
2019-06-10T23:01:38.198Z,13.60
2019-06-10T23:04:05.077Z,13.50
2019-06-10T23:06:34.698Z,13.50
2019-06-10T23:09:05.850Z,13.60
2019-06-10T23:11:35.440Z,13.60
2019-06-10T23:14:05.993Z,13.40
2019-06-10T23:16:35.492Z,13.20
2019-06-10T23:19:05.138Z,13.10
2019-06-10T23:21:34.773Z,13.10
2019-06-10T23:24:04.277Z,13.00
2019-06-10T23:26:33.783Z,12.80
2019-06-10T23:29:03.487Z,12.80
2019-06-10T23:31:46.202Z,12.80
2019-06-10T23:34:04.319Z,12.90
2019-06-10T23:36:33.806Z,12.90
2019-06-10T23:39:04.377Z,12.90
2019-06-10T23:41:35.175Z,13.00
2019-06-10T23:44:04.744Z,13.10
2019-06-10T23:46:34.240Z,13.20
2019-06-10T23:49:04.645Z,13.30
2019-06-10T23:51:35.306Z,13.20
2019-06-10T23:54:06.355Z,13.30
2019-06-10T23:56:36.051Z,13.30
2019-06-10T23:59:05.540Z,13.40
